Time;durP1;ratioP1;P1;durP2;ratioP2;P2;SDS_P1;SDS_P2;PMS_P1;PMS_P2;Temp;Humidity;BMP_temperature;BMP_pressure;BME280_temperature;BME280_humidity;BME280_pressure;Samples;Min_cycle;Max_cycle;Signal;HPM_P1;HPM_P2
2023/07/12 00:01:10;;;;;;;4.72;2.83;;;;;;;;;;5035889;28;20239;-84
2023/07/12 00:03:39;;;;;;;3.22;2.53;;;;;;;;;;5032121;28;20231;-84
2023/07/12 00:06:11;;;;;;;3.20;2.65;;;;;;;;;;5016255;28;20227;-83
2023/07/12 00:08:40;;;;;;;3.10;2.67;;;;;;;;;;5008678;28;20235;-84
2023/07/12 00:11:13;;;;;;;5.30;2.83;;;;;;;;;;5014868;28;20290;-83
2023/07/12 00:13:41;;;;;;;5.55;2.50;;;;;;;;;;5013838;28;20623;-84
2023/07/12 00:16:11;;;;;;;4.78;2.50;;;;;;;;;;5005299;28;20724;-84
2023/07/12 00:18:39;;;;;;;3.58;2.75;;;;;;;;;;5013080;28;20239;-84
2023/07/12 00:21:06;;;;;;;3.15;2.53;;;;;;;;;;5006400;28;20204;-84
2023/07/12 00:23:34;;;;;;;3.33;2.50;;;;;;;;;;5012663;28;20243;-84
2023/07/12 00:26:01;;;;;;;2.85;2.30;;;;;;;;;;5013526;28;20641;-84
2023/07/12 00:28:28;;;;;;;4.35;3.08;;;;;;;;;;5012503;28;20243;-84
2023/07/12 00:30:56;;;;;;;4.05;2.58;;;;;;;;;;5013722;28;20207;-84
2023/07/12 00:33:24;;;;;;;2.50;2.13;;;;;;;;;;5005427;28;20631;-83
2023/07/12 00:35:52;;;;;;;3.22;2.60;;;;;;;;;;5012529;28;20222;-84
2023/07/12 00:38:21;;;;;;;2.75;2.25;;;;;;;;;;5011863;28;20713;-84
2023/07/12 00:41:09;;;;;;;3.08;2.40;;;;;;;;;;5011951;28;20203;-84
2023/07/12 00:43:38;;;;;;;4.45;2.65;;;;;;;;;;5004725;28;20594;-83
2023/07/12 00:46:11;;;;;;;2.33;2.13;;;;;;;;;;5012453;28;20218;-85
2023/07/12 00:48:38;;;;;;;2.90;2.47;;;;;;;;;;5005765;28;20289;-84
2023/07/12 00:51:13;;;;;;;2.50;2.30;;;;;;;;;;5015506;28;20735;-85
2023/07/12 00:53:40;;;;;;;3.13;2.47;;;;;;;;;;5005946;28;20234;-84
2023/07/12 00:56:08;;;;;;;3.17;2.53;;;;;;;;;;5007120;28;20208;-85
2023/07/12 00:58:37;;;;;;;4.15;2.70;;;;;;;;;;5013159;28;20318;-84
2023/07/12 01:01:05;;;;;;;2.45;2.25;;;;;;;;;;5015977;28;20206;-85
2023/07/12 01:03:33;;;;;;;2.67;2.20;;;;;;;;;;5007010;28;20239;-85
2023/07/12 01:06:01;;;;;;;2.85;2.45;;;;;;;;;;5017088;28;20258;-85
2023/07/12 01:08:30;;;;;;;2.30;2.10;;;;;;;;;;5014739;28;20731;-84
2023/07/12 01:10:57;;;;;;;3.05;2.60;;;;;;;;;;5015516;28;20294;-85
2023/07/12 01:13:25;;;;;;;2.53;2.33;;;;;;;;;;5014885;28;20652;-85
2023/07/12 01:15:53;;;;;;;2.92;2.58;;;;;;;;;;5015390;28;20203;-84
2023/07/12 01:18:21;;;;;;;2.58;2.33;;;;;;;;;;5014704;28;20246;-84
2023/07/12 01:20:48;;;;;;;5.47;2.38;;;;;;;;;;5015521;28;20235;-85
2023/07/12 01:23:17;;;;;;;2.38;2.15;;;;;;;;;;5014634;28;20298;-84
2023/07/12 01:25:45;;;;;;;3.70;2.38;;;;;;;;;;5015653;28;20211;-85
2023/07/12 01:28:12;;;;;;;2.75;2.42;;;;;;;;;;5014550;28;20239;-85
2023/07/12 01:30:40;;;;;;;3.83;2.30;;;;;;;;;;5014782;28;20207;-84
2023/07/12 01:33:07;;;;;;;3.28;2.15;;;;;;;;;;5006798;28;20235;-85
2023/07/12 01:35:34;;;;;;;2.58;2.10;;;;;;;;;;5012086;28;20208;-85
2023/07/12 01:38:01;;;;;;;3.40;2.53;;;;;;;;;;5010754;28;20261;-86
2023/07/12 01:40:29;;;;;;;2.35;2.03;;;;;;;;;;5014626;28;20694;-85
2023/07/12 01:42:56;;;;;;;5.80;2.70;;;;;;;;;;5010614;28;20231;-86
2023/07/12 01:45:23;;;;;;;3.13;2.70;;;;;;;;;;5004995;28;20251;-85
2023/07/12 01:47:50;;;;;;;4.20;2.47;;;;;;;;;;5013801;28;20720;-85
2023/07/12 01:50:17;;;;;;;4.07;2.38;;;;;;;;;;5004903;28;20200;-85
2023/07/12 01:52:44;;;;;;;4.78;2.80;;;;;;;;;;5007315;28;20334;-85
2023/07/12 01:55:11;;;;;;;3.40;2.38;;;;;;;;;;5014452;28;20732;-84
2023/07/12 01:57:40;;;;;;;7.22;2.60;;;;;;;;;;5013593;28;20196;-85
2023/07/12 02:00:08;;;;;;;2.95;2.30;;;;;;;;;;5013967;28;20203;-85
2023/07/12 02:02:35;;;;;;;2.58;1.90;;;;;;;;;;5013870;28;20208;-85
2023/07/12 02:05:02;;;;;;;5.50;1.98;;;;;;;;;;5014683;28;20207;-86
2023/07/12 02:07:29;;;;;;;4.53;2.47;;;;;;;;;;5013955;28;20215;-85
2023/07/12 02:10:09;;;;;;;5.28;2.75;;;;;;;;;;5014311;28;20277;-86
2023/07/12 02:12:36;;;;;;;5.30;2.70;;;;;;;;;;5013748;28;20233;-85
2023/07/12 02:15:05;;;;;;;4.10;2.20;;;;;;;;;;5014318;28;20214;-85
2023/07/12 02:17:32;;;;;;;3.00;2.28;;;;;;;;;;5011676;28;20222;-86
2023/07/12 02:19:59;;;;;;;5.78;2.15;;;;;;;;;;5013788;28;20664;-86
2023/07/12 02:22:33;;;;;;;2.92;2.60;;;;;;;;;;5013434;28;20199;-85
2023/07/12 02:25:00;;;;;;;5.78;2.53;;;;;;;;;;5013945;28;20206;-84
2023/07/12 02:27:28;;;;;;;5.47;2.83;;;;;;;;;;5013196;28;20610;-86
2023/07/12 02:29:55;;;;;;;2.72;2.22;;;;;;;;;;5013446;28;20227;-85
2023/07/12 02:32:25;;;;;;;2.53;2.10;;;;;;;;;;5012951;28;20207;-85
2023/07/12 02:34:52;;;;;;;2.88;2.20;;;;;;;;;;5014103;28;20732;-85
2023/07/12 02:37:19;;;;;;;4.57;3.15;;;;;;;;;;5013640;28;20254;-86
2023/07/12 02:39:47;;;;;;;6.57;2.75;;;;;;;;;;5012760;28;20224;-85
2023/07/12 02:42:14;;;;;;;4.18;2.38;;;;;;;;;;5013897;28;20200;-85
2023/07/12 02:44:41;;;;;;;6.65;2.20;;;;;;;;;;5013291;28;20291;-84
2023/07/12 02:47:08;;;;;;;3.65;2.28;;;;;;;;;;5013516;28;20204;-85
2023/07/12 02:49:36;;;;;;;3.10;2.28;;;;;;;;;;5012567;28;20231;-85
2023/07/12 02:52:04;;;;;;;3.30;2.30;;;;;;;;;;5013811;28;20688;-85
2023/07/12 02:54:31;;;;;;;4.25;2.30;;;;;;;;;;5013308;28;20317;-85
2023/07/12 02:56:58;;;;;;;3.10;2.22;;;;;;;;;;5013561;28;20615;-85
2023/07/12 02:59:25;;;;;;;4.25;2.58;;;;;;;;;;5012692;28;20231;-84
2023/07/12 03:01:52;;;;;;;7.97;2.40;;;;;;;;;;5013245;28;20261;-85
2023/07/12 03:04:20;;;;;;;3.30;2.42;;;;;;;;;;5008875;28;20231;-85
2023/07/12 03:06:48;;;;;;;3.13;2.40;;;;;;;;;;5013114;28;20258;-84
2023/07/12 03:09:15;;;;;;;3.03;2.15;;;;;;;;;;5011741;28;20310;-85
2023/07/12 03:11:42;;;;;;;5.38;3.00;;;;;;;;;;5004856;28;20196;-83
2023/07/12 03:14:09;;;;;;;5.00;2.40;;;;;;;;;;5004288;28;20227;-85
2023/07/12 03:16:37;;;;;;;3.40;2.35;;;;;;;;;;5012121;28;20618;-85
2023/07/12 03:19:04;;;;;;;2.40;2.20;;;;;;;;;;5011412;28;20238;-85
2023/07/12 03:21:31;;;;;;;5.57;2.70;;;;;;;;;;5012610;28;20215;-85
2023/07/12 03:23:59;;;;;;;6.63;2.55;;;;;;;;;;5011908;28;20266;-85
2023/07/12 03:26:26;;;;;;;2.92;2.38;;;;;;;;;;5012562;28;20207;-84
2023/07/12 03:28:53;;;;;;;4.47;2.35;;;;;;;;;;5007462;28;20242;-84
2023/07/12 03:31:21;;;;;;;3.83;2.28;;;;;;;;;;5016728;28;20235;-85
2023/07/12 03:33:48;;;;;;;4.63;2.25;;;;;;;;;;5013286;28;20305;-84
2023/07/12 03:36:15;;;;;;;4.07;2.38;;;;;;;;;;5013457;28;20230;-85
2023/07/12 03:38:42;;;;;;;4.30;2.45;;;;;;;;;;5001333;28;20705;-85
2023/07/12 03:41:12;;;;;;;3.28;2.20;;;;;;;;;;5001499;28;20200;-84
2023/07/12 03:43:39;;;;;;;3.03;2.25;;;;;;;;;;5008512;28;20236;-84
2023/07/12 03:46:06;;;;;;;3.70;2.30;;;;;;;;;;4995190;28;20625;-84
2023/07/12 03:48:35;;;;;;;4.10;2.30;;;;;;;;;;5043596;23;20243;-86
2023/07/12 03:51:02;;;;;;;3.20;2.22;;;;;;;;;;5079922;28;20263;-84
2023/07/12 03:53:29;;;;;;;4.15;2.50;;;;;;;;;;5061096;28;20241;-85
2023/07/12 03:56:00;;;;;;;3.13;2.40;;;;;;;;;;5045274;28;20260;-80
2023/07/12 03:58:31;;;;;;;4.90;2.70;;;;;;;;;;5047504;28;20328;-79
2023/07/12 04:00:58;;;;;;;4.13;2.45;;;;;;;;;;5051237;28;20210;-79
2023/07/12 04:03:25;;;;;;;3.50;2.58;;;;;;;;;;5049709;28;20730;-79
2023/07/12 04:05:53;;;;;;;4.32;2.70;;;;;;;;;;5053697;28;20214;-80
2023/07/12 04:08:21;;;;;;;5.55;2.85;;;;;;;;;;5040284;28;20651;-79
2023/07/12 04:10:51;;;;;;;3.22;2.92;;;;;;;;;;5027876;28;20234;-79
2023/07/12 04:13:18;;;;;;;3.03;2.72;;;;;;;;;;5050448;28;20225;-79
2023/07/12 04:15:47;;;;;;;3.88;2.20;;;;;;;;;;5067340;28;20202;-79
2023/07/12 04:18:14;;;;;;;5.95;2.50;;;;;;;;;;5066642;28;20775;-80
2023/07/12 04:20:41;;;;;;;6.13;2.55;;;;;;;;;;5054297;28;20742;-79
2023/07/12 04:23:08;;;;;;;4.60;2.15;;;;;;;;;;5062373;28;20732;-80
2023/07/12 04:25:35;;;;;;;4.93;2.75;;;;;;;;;;5064256;28;20225;-80
2023/07/12 04:28:02;;;;;;;6.18;2.78;;;;;;;;;;5060669;28;20225;-80
2023/07/12 04:30:29;;;;;;;5.88;2.90;;;;;;;;;;5065204;28;20217;-80
2023/07/12 04:32:57;;;;;;;8.77;3.25;;;;;;;;;;5054685;28;20238;-80
2023/07/12 04:35:24;;;;;;;2.85;2.60;;;;;;;;;;5054608;28;20564;-80
2023/07/12 04:37:52;;;;;;;3.20;2.38;;;;;;;;;;5054279;28;20233;-81
2023/07/12 04:40:20;;;;;;;4.35;2.70;;;;;;;;;;5054461;28;20229;-79
2023/07/12 04:42:47;;;;;;;4.60;3.13;;;;;;;;;;5054473;28;20299;-79
2023/07/12 04:45:14;;;;;;;4.18;2.30;;;;;;;;;;5062447;28;20221;-84
2023/07/12 04:47:41;;;;;;;3.78;2.60;;;;;;;;;;5054774;28;20230;-84
2023/07/12 04:50:11;;;;;;;4.88;2.63;;;;;;;;;;5061310;28;20244;-84
2023/07/12 04:52:38;;;;;;;4.75;2.67;;;;;;;;;;5052347;28;20256;-84
2023/07/12 04:55:06;;;;;;;4.78;2.95;;;;;;;;;;5049122;28;20248;-85
2023/07/12 04:57:33;;;;;;;6.72;2.80;;;;;;;;;;5055470;28;20741;-84
2023/07/12 05:00:00;;;;;;;5.70;2.75;;;;;;;;;;5060592;28;20323;-84
2023/07/12 05:02:27;;;;;;;7.28;2.97;;;;;;;;;;5054719;28;20213;-84
2023/07/12 05:04:54;;;;;;;3.75;2.97;;;;;;;;;;5065956;28;20217;-84
2023/07/12 05:07:23;;;;;;;3.33;2.97;;;;;;;;;;5057131;28;20205;-86
2023/07/12 05:09:50;;;;;;;3.60;2.55;;;;;;;;;;5057162;28;20382;-85
2023/07/12 05:12:17;;;;;;;4.38;2.97;;;;;;;;;;5065815;28;20233;-84
2023/07/12 05:14:44;;;;;;;5.45;3.22;;;;;;;;;;5061758;28;20218;-85
2023/07/12 05:17:11;;;;;;;4.22;3.30;;;;;;;;;;5061005;28;21030;-85
2023/07/12 05:19:38;;;;;;;4.90;3.10;;;;;;;;;;5065024;28;20237;-85
2023/07/12 05:22:05;;;;;;;7.15;3.45;;;;;;;;;;5059842;28;20583;-84
2023/07/12 05:24:34;;;;;;;3.33;3.03;;;;;;;;;;5053221;28;20234;-84
2023/07/12 05:27:01;;;;;;;5.10;3.55;;;;;;;;;;5053950;28;20210;-84
2023/07/12 05:29:28;;;;;;;5.45;3.60;;;;;;;;;;5053114;28;20245;-85
2023/07/12 05:31:55;;;;;;;4.28;3.72;;;;;;;;;;5053787;28;20202;-84
2023/07/12 05:34:22;;;;;;;9.73;3.83;;;;;;;;;;5053191;28;20305;-83
2023/07/12 05:36:49;;;;;;;8.45;4.03;;;;;;;;;;5064881;28;20209;-85
2023/07/12 05:39:16;;;;;;;6.95;3.78;;;;;;;;;;5057043;28;20225;-86
2023/07/12 05:41:45;;;;;;;7.68;4.75;;;;;;;;;;5061690;28;20206;-85
2023/07/12 05:44:12;;;;;;;7.47;4.13;;;;;;;;;;5068421;28;20237;-86
2023/07/12 05:46:39;;;;;;;8.73;4.10;;;;;;;;;;5062621;28;20214;-85
2023/07/12 05:49:06;;;;;;;5.57;4.18;;;;;;;;;;5067037;28;20236;-85
2023/07/12 05:51:33;;;;;;;8.60;4.35;;;;;;;;;;5064943;28;20210;-83
2023/07/12 05:54:00;;;;;;;5.68;3.60;;;;;;;;;;5064480;28;20614;-84
2023/07/12 05:56:27;;;;;;;7.32;3.97;;;;;;;;;;5056291;28;20210;-85
2023/07/12 05:58:55;;;;;;;7.28;4.35;;;;;;;;;;5065047;28;20228;-87
2023/07/12 06:01:22;;;;;;;7.18;4.55;;;;;;;;;;5061632;28;20724;-85
2023/07/12 06:03:50;;;;;;;9.48;4.60;;;;;;;;;;5072862;28;20645;-85
2023/07/12 06:06:17;;;;;;;6.60;4.80;;;;;;;;;;5065813;28;20221;-86
2023/07/12 06:08:44;;;;;;;7.68;5.18;;;;;;;;;;5063649;28;20244;-87
2023/07/12 06:11:11;;;;;;;6.72;4.60;;;;;;;;;;5073224;28;20263;-85
2023/07/12 06:13:38;;;;;;;8.07;5.28;;;;;;;;;;5064332;28;20283;-85
2023/07/12 06:16:07;;;;;;;5.68;5.13;;;;;;;;;;5064708;28;20201;-84
2023/07/12 06:18:34;;;;;;;10.60;5.28;;;;;;;;;;5072311;28;20237;-85
2023/07/12 06:21:02;;;;;;;6.78;5.22;;;;;;;;;;5072912;28;20227;-85
2023/07/12 06:23:29;;;;;;;5.68;4.93;;;;;;;;;;5072092;28;20707;-85
2023/07/12 06:25:58;;;;;;;11.77;5.20;;;;;;;;;;5068450;28;20317;-85
2023/07/12 06:28:25;;;;;;;6.82;4.90;;;;;;;;;;5060628;28;20277;-84
2023/07/12 06:30:52;;;;;;;6.03;5.00;;;;;;;;;;5064763;28;20201;-85
2023/07/12 06:33:20;;;;;;;7.03;5.32;;;;;;;;;;5072150;28;20229;-85
2023/07/12 06:35:47;;;;;;;10.50;5.50;;;;;;;;;;5069491;28;20210;-84
2023/07/12 06:38:16;;;;;;;6.88;5.72;;;;;;;;;;5060696;28;21943;-86
2023/07/12 06:40:43;;;;;;;10.55;6.47;;;;;;;;;;5063882;28;20573;-85
2023/07/12 06:43:12;;;;;;;9.60;5.57;;;;;;;;;;5066598;28;20230;-87
2023/07/12 06:45:39;;;;;;;8.25;5.72;;;;;;;;;;5054156;28;20313;-85
2023/07/12 06:48:06;;;;;;;9.23;5.07;;;;;;;;;;5063107;28;20221;-86
2023/07/12 06:50:34;;;;;;;6.07;5.47;;;;;;;;;;5060924;28;20260;-87
2023/07/12 06:53:01;;;;;;;10.07;4.97;;;;;;;;;;5060906;28;20707;-86
2023/07/12 06:55:28;;;;;;;9.68;5.47;;;;;;;;;;5053003;28;20214;-87
2023/07/12 06:57:56;;;;;;;10.02;6.45;;;;;;;;;;5059824;28;20291;-86
2023/07/12 07:00:23;;;;;;;12.45;5.85;;;;;;;;;;5060134;28;20209;-89
2023/07/12 07:02:50;;;;;;;9.40;5.28;;;;;;;;;;5072586;28;20225;-87
2023/07/12 07:05:17;;;;;;;8.10;5.35;;;;;;;;;;5072881;28;20256;-86
2023/07/12 07:07:45;;;;;;;10.55;5.68;;;;;;;;;;5063226;28;20237;-86
2023/07/12 07:10:12;;;;;;;7.88;5.80;;;;;;;;;;5071939;28;20225;-87
2023/07/12 07:12:39;;;;;;;9.15;5.53;;;;;;;;;;5063252;28;20267;-87
2023/07/12 07:15:07;;;;;;;10.68;5.05;;;;;;;;;;5066633;28;20206;-86
2023/07/12 07:17:34;;;;;;;6.88;5.00;;;;;;;;;;5067937;28;20209;-85
2023/07/12 07:20:01;;;;;;;8.52;4.82;;;;;;;;;;5052724;28;20229;-87
2023/07/12 07:22:28;;;;;;;6.75;5.20;;;;;;;;;;5063611;28;20442;-88
2023/07/12 07:24:56;;;;;;;8.38;5.30;;;;;;;;;;5059659;28;20312;-87
2023/07/12 07:27:23;;;;;;;6.45;3.20;;;;;;;;;;5052756;28;20213;-86
2023/07/12 07:29:51;;;;;;;4.57;3.40;;;;;;;;;;5059676;28;20229;-87
2023/07/12 07:32:18;;;;;;;4.30;3.22;;;;;;;;;;5067225;28;20205;-87
2023/07/12 07:34:45;;;;;;;4.40;2.90;;;;;;;;;;5062629;28;20226;-86
2023/07/12 07:37:12;;;;;;;4.07;2.90;;;;;;;;;;5071805;28;20678;-86
2023/07/12 07:39:39;;;;;;;3.70;3.00;;;;;;;;;;5070783;28;20236;-87
2023/07/12 07:42:08;;;;;;;3.00;2.80;;;;;;;;;;5071302;28;20744;-87
2023/07/12 07:44:35;;;;;;;3.30;3.00;;;;;;;;;;5063072;28;20280;-87
2023/07/12 07:47:02;;;;;;;6.90;2.72;;;;;;;;;;5053244;28;20287;-88
2023/07/12 07:49:29;;;;;;;4.28;2.60;;;;;;;;;;5056766;28;20237;-89
2023/07/12 07:51:56;;;;;;;4.63;2.55;;;;;;;;;;5047914;28;20209;-88
2023/07/12 07:54:23;;;;;;;3.47;2.47;;;;;;;;;;5057142;28;20766;-87
2023/07/12 07:56:50;;;;;;;3.35;2.38;;;;;;;;;;5053201;28;20217;-88
2023/07/12 07:59:19;;;;;;;7.63;2.97;;;;;;;;;;5068479;28;20281;-88
2023/07/12 08:01:46;;;;;;;2.65;2.45;;;;;;;;;;5058761;28;20205;-88
2023/07/12 08:04:13;;;;;;;3.92;2.78;;;;;;;;;;5059567;28;20221;-88
2023/07/12 08:06:40;;;;;;;2.95;2.42;;;;;;;;;;5074339;28;20603;-88
2023/07/12 08:09:07;;;;;;;4.00;3.05;;;;;;;;;;5059384;28;20256;-89
2023/07/12 08:11:35;;;;;;;4.07;2.53;;;;;;;;;;5059003;28;20260;-88
2023/07/12 08:14:02;;;;;;;4.10;2.53;;;;;;;;;;5069707;28;20278;-89
2023/07/12 08:16:33;;;;;;;4.90;2.72;;;;;;;;;;5061638;28;20292;-88
2023/07/12 08:19:00;;;;;;;3.03;2.80;;;;;;;;;;5048688;28;20665;-90
2023/07/12 08:21:27;;;;;;;5.90;2.60;;;;;;;;;;5057391;28;20206;-89
2023/07/12 08:23:54;;;;;;;3.40;2.42;;;;;;;;;;5066429;28;20229;-89
2023/07/12 08:26:21;;;;;;;2.58;2.38;;;;;;;;;;5065551;28;20275;-89
2023/07/12 08:28:48;;;;;;;5.00;3.47;;;;;;;;;;5065027;28;20276;-89
2023/07/12 08:31:16;;;;;;;4.72;2.80;;;;;;;;;;5064331;28;20255;-89
2023/07/12 08:33:44;;;;;;;3.33;2.50;;;;;;;;;;5060627;28;20829;-89
2023/07/12 08:36:11;;;;;;;2.92;2.67;;;;;;;;;;5065063;28;20256;-89
2023/07/12 08:38:39;;;;;;;6.53;3.75;;;;;;;;;;5058604;28;20315;-88
2023/07/12 08:41:11;;;;;;;4.07;2.78;;;;;;;;;;5072006;28;20202;-89
2023/07/12 08:43:38;;;;;;;3.83;2.90;;;;;;;;;;5060678;28;20291;-90
2023/07/12 08:46:07;;;;;;;5.32;2.88;;;;;;;;;;5058520;28;20229;-89
2023/07/12 08:48:36;;;;;;;4.45;3.10;;;;;;;;;;5067117;28;20237;-88
2023/07/12 08:51:07;;;;;;;3.08;2.67;;;;;;;;;;5060910;28;20190;-87
2023/07/12 08:53:34;;;;;;;3.63;3.03;;;;;;;;;;5060077;28;20234;-88
2023/07/12 08:56:02;;;;;;;4.30;2.75;;;;;;;;;;5060905;28;20209;-89
2023/07/12 08:58:34;;;;;;;5.07;2.55;;;;;;;;;;5060357;28;20244;-88
2023/07/12 09:01:03;;;;;;;2.80;2.60;;;;;;;;;;5053043;28;20610;-89
2023/07/12 09:03:31;;;;;;;4.63;2.70;;;;;;;;;;5060417;28;20229;-88
2023/07/12 09:05:58;;;;;;;2.88;2.58;;;;;;;;;;5065575;28;20239;-88
2023/07/12 09:08:29;;;;;;;5.43;2.80;;;;;;;;;;5071563;28;20229;-88
2023/07/12 09:10:57;;;;;;;4.43;2.70;;;;;;;;;;5069634;28;20310;-88
2023/07/12 09:13:32;;;;;;;3.17;2.80;;;;;;;;;;5061460;28;20272;-89
2023/07/12 09:16:00;;;;;;;3.28;2.95;;;;;;;;;;5057832;28;20214;-88
2023/07/12 09:18:31;;;;;;;3.75;2.92;;;;;;;;;;5064047;28;20222;-88
2023/07/12 09:21:03;;;;;;;4.70;2.88;;;;;;;;;;5065439;28;20240;-88
2023/07/12 09:23:38;;;;;;;3.15;2.83;;;;;;;;;;5056757;28;20234;-88
2023/07/12 09:26:10;;;;;;;3.50;2.90;;;;;;;;;;5049670;28;20221;-88
2023/07/12 09:28:39;;;;;;;3.10;2.80;;;;;;;;;;5064214;28;20230;-88
2023/07/12 09:31:12;;;;;;;4.20;2.75;;;;;;;;;;5056683;28;20210;-89
2023/07/12 09:33:39;;;;;;;4.32;2.90;;;;;;;;;;5055166;28;20237;-84
2023/07/12 09:36:10;;;;;;;4.30;2.95;;;;;;;;;;5054448;28;20205;-84
2023/07/12 09:38:42;;;;;;;4.20;3.17;;;;;;;;;;5062260;28;20237;-84
2023/07/12 09:41:10;;;;;;;4.57;3.10;;;;;;;;;;5055393;28;20229;-84
2023/07/12 09:43:39;;;;;;;3.97;2.88;;;;;;;;;;5043443;28;20230;-84
2023/07/12 09:46:16;;;;;;;3.85;2.50;;;;;;;;;;5060711;28;20222;-83
2023/07/12 09:48:44;;;;;;;4.20;2.85;;;;;;;;;;5052851;23;20225;-83
2023/07/12 09:51:19;;;;;;;4.78;2.38;;;;;;;;;;4992971;28;20212;-83
2023/07/12 09:53:49;;;;;;;3.70;3.08;;;;;;;;;;4991960;28;20235;-82
2023/07/12 09:56:19;;;;;;;3.53;2.53;;;;;;;;;;4992219;28;20665;-83
2023/07/12 09:58:50;;;;;;;5.70;2.90;;;;;;;;;;4991974;28;20705;-83
2023/07/12 10:01:21;;;;;;;5.03;2.70;;;;;;;;;;4992170;28;20208;-83
2023/07/12 10:03:52;;;;;;;3.08;2.60;;;;;;;;;;5007601;28;20227;-84
2023/07/12 10:06:23;;;;;;;5.70;2.70;;;;;;;;;;4998294;28;20234;-83
2023/07/12 10:08:55;;;;;;;5.85;2.92;;;;;;;;;;5001323;28;20290;-83
2023/07/12 10:11:26;;;;;;;3.13;2.50;;;;;;;;;;5000756;28;20212;-84
2023/07/12 10:13:56;;;;;;;4.05;2.28;;;;;;;;;;5003702;28;20242;-84
2023/07/12 10:16:26;;;;;;;3.20;2.60;;;;;;;;;;5001346;28;20661;-83
2023/07/12 10:18:53;;;;;;;2.90;2.40;;;;;;;;;;5010588;28;20272;-82
2023/07/12 10:21:21;;;;;;;6.18;2.63;;;;;;;;;;5008739;28;20207;-83
2023/07/12 10:23:50;;;;;;;3.35;2.10;;;;;;;;;;5004367;28;20236;-83
2023/07/12 10:26:19;;;;;;;4.20;2.60;;;;;;;;;;4999455;28;20220;-83
2023/07/12 10:28:49;;;;;;;2.80;2.60;;;;;;;;;;5000452;28;20244;-84
2023/07/12 10:31:25;;;;;;;3.53;2.45;;;;;;;;;;5006788;28;20262;-85
2023/07/12 10:33:53;;;;;;;3.05;2.13;;;;;;;;;;4994329;28;20232;-83
2023/07/12 10:36:23;;;;;;;2.92;2.20;;;;;;;;;;4997899;28;20212;-83
2023/07/12 10:38:50;;;;;;;3.78;2.70;;;;;;;;;;4999448;28;20285;-84
2023/07/12 10:41:21;;;;;;;3.33;2.78;;;;;;;;;;4992037;28;20204;-84
2023/07/12 10:43:50;;;;;;;2.97;2.38;;;;;;;;;;4993005;28;20239;-83
2023/07/12 10:46:22;;;;;;;3.67;2.50;;;;;;;;;;4997928;28;20227;-84
2023/07/12 10:48:51;;;;;;;3.08;2.65;;;;;;;;;;4991451;28;20862;-85
2023/07/12 10:51:25;;;;;;;3.15;2.80;;;;;;;;;;4992521;28;20204;-87
2023/07/12 10:53:54;;;;;;;4.35;2.58;;;;;;;;;;4991446;28;20231;-86
2023/07/12 10:56:26;;;;;;;2.40;2.20;;;;;;;;;;4991921;28;20204;-87
2023/07/12 10:58:57;;;;;;;2.38;2.10;;;;;;;;;;4993428;28;20241;-85
2023/07/12 11:01:38;;;;;;;4.03;2.20;;;;;;;;;;4997855;28;20267;-85
2023/07/12 11:04:08;;;;;;;4.75;2.92;;;;;;;;;;5000146;28;20373;-85
2023/07/12 11:06:35;;;;;;;3.60;2.40;;;;;;;;;;4991006;28;20238;-85
2023/07/12 11:09:08;;;;;;;2.72;2.53;;;;;;;;;;4991077;28;20663;-85
2023/07/12 11:11:42;;;;;;;2.30;2.10;;;;;;;;;;4992136;28;20212;-84
2023/07/12 11:14:42;;;;;;;3.20;2.90;;;;;;;;;;4983767;28;20250;-85
2023/07/12 11:17:17;;;;;;;3.05;2.72;;;;;;;;;;4922912;29;20206;-84
2023/07/12 11:19:45;;;;;;;4.80;2.70;;;;;;;;;;4922702;29;20300;-83
2023/07/12 11:22:14;;;;;;;2.95;2.47;;;;;;;;;;4962360;28;20271;-84
2023/07/12 11:24:49;;;;;;;4.22;2.72;;;;;;;;;;4991043;28;20743;-85
2023/07/12 11:27:28;;;;;;;3.90;2.50;;;;;;;;;;4987208;28;20219;-83
2023/07/12 11:29:57;;;;;;;4.43;2.22;;;;;;;;;;4971490;28;20396;-83
2023/07/12 11:32:26;;;;;;;2.40;2.20;;;;;;;;;;4971817;28;20280;-83
2023/07/12 11:34:55;;;;;;;4.70;2.25;;;;;;;;;;4970958;28;20220;-82
2023/07/12 11:37:24;;;;;;;2.30;2.10;;;;;;;;;;4971017;28;20255;-85
2023/07/12 11:39:51;;;;;;;4.90;2.30;;;;;;;;;;4971696;28;20232;-84
2023/07/12 11:42:24;;;;;;;3.17;2.42;;;;;;;;;;4971972;28;20212;-83
2023/07/12 11:45:01;;;;;;;4.85;2.47;;;;;;;;;;4971599;28;20677;-83
2023/07/12 11:47:28;;;;;;;2.20;2.00;;;;;;;;;;4970968;28;20311;-84
2023/07/12 11:49:57;;;;;;;2.20;1.90;;;;;;;;;;4971362;28;20232;-84
2023/07/12 11:52:24;;;;;;;2.38;1.88;;;;;;;;;;4972229;28;20241;-84
2023/07/12 11:54:53;;;;;;;2.08;1.88;;;;;;;;;;4983546;28;20235;-83
2023/07/12 11:57:20;;;;;;;1.65;1.55;;;;;;;;;;5004295;28;20613;-83
2023/07/12 11:59:49;;;;;;;2.28;1.70;;;;;;;;;;4991661;28;20792;-83
2023/07/12 12:02:19;;;;;;;1.92;1.67;;;;;;;;;;4998679;28;20208;-83
2023/07/12 12:04:48;;;;;;;1.65;1.55;;;;;;;;;;4971769;28;20311;-85
2023/07/12 12:07:20;;;;;;;3.90;1.52;;;;;;;;;;4971829;28;20231;-87
2023/07/12 12:09:48;;;;;;;1.48;1.38;;;;;;;;;;4991629;28;20239;-86
2023/07/12 12:12:19;;;;;;;2.58;1.70;;;;;;;;;;4991706;28;20223;-87
2023/07/12 12:14:48;;;;;;;4.13;1.55;;;;;;;;;;4991279;28;20588;-85
2023/07/12 12:17:16;;;;;;;1.58;1.27;;;;;;;;;;4991308;28;20281;-84
2023/07/12 12:19:48;;;;;;;2.55;1.33;;;;;;;;;;4991229;28;20240;-86
2023/07/12 12:22:18;;;;;;;1.73;1.40;;;;;;;;;;4992015;28;20266;-86
2023/07/12 12:24:48;;;;;;;2.17;1.92;;;;;;;;;;4998839;28;20228;-85
2023/07/12 12:27:19;;;;;;;2.80;1.40;;;;;;;;;;4981464;28;20231;-85
2023/07/12 12:29:46;;;;;;;3.67;1.45;;;;;;;;;;4979283;28;20228;-86
2023/07/12 12:32:16;;;;;;;1.48;1.02;;;;;;;;;;4971698;28;20212;-83
2023/07/12 12:34:47;;;;;;;2.75;1.60;;;;;;;;;;4971347;28;20233;-86
2023/07/12 12:37:17;;;;;;;1.88;1.77;;;;;;;;;;4973845;28;20306;-83
2023/07/12 12:39:57;;;;;;;6.88;1.30;;;;;;;;;;4954854;28;20240;-83
2023/07/12 12:42:25;;;;;;;2.28;1.40;;;;;;;;;;4977303;28;20299;-86
2023/07/12 12:44:54;;;;;;;2.63;1.45;;;;;;;;;;4995723;28;20216;-84
2023/07/12 12:47:22;;;;;;;2.35;1.15;;;;;;;;;;5005594;28;20658;-85
2023/07/12 12:49:51;;;;;;;1.83;1.35;;;;;;;;;;5013947;28;20240;-86
2023/07/12 12:52:23;;;;;;;1.38;1.23;;;;;;;;;;5006391;28;20208;-84
2023/07/12 12:54:50;;;;;;;2.35;1.20;;;;;;;;;;4971442;28;20221;-84
2023/07/12 12:57:17;;;;;;;1.50;1.20;;;;;;;;;;4971746;28;20781;-88
2023/07/12 12:59:45;;;;;;;1.48;1.17;;;;;;;;;;4965642;28;20253;-85
2023/07/12 13:02:14;;;;;;;1.55;1.35;;;;;;;;;;4984094;28;20216;-84
2023/07/12 13:04:41;;;;;;;3.50;1.10;;;;;;;;;;4983113;28;20236;-85
2023/07/12 13:07:18;;;;;;;3.47;1.20;;;;;;;;;;4973922;28;20260;-85
2023/07/12 13:09:45;;;;;;;3.35;1.40;;;;;;;;;;4994014;28;20325;-85
2023/07/12 13:12:15;;;;;;;3.35;1.73;;;;;;;;;;4991128;28;20839;-85
2023/07/12 13:14:42;;;;;;;1.70;1.17;;;;;;;;;;4974247;28;20287;-86
2023/07/12 13:17:10;;;;;;;4.88;1.83;;;;;;;;;;4973837;28;20216;-85
2023/07/12 13:19:37;;;;;;;1.45;1.30;;;;;;;;;;4973908;28;20240;-86
2023/07/12 13:22:04;;;;;;;1.60;1.17;;;;;;;;;;4975772;28;20275;-86
2023/07/12 13:24:34;;;;;;;1.10;1.00;;;;;;;;;;4973786;28;20236;-84
2023/07/12 13:27:01;;;;;;;1.55;1.27;;;;;;;;;;4981168;28;20706;-87
2023/07/12 13:29:28;;;;;;;1.80;1.48;;;;;;;;;;4978271;28;20232;-89
2023/07/12 13:31:55;;;;;;;1.65;1.08;;;;;;;;;;4978609;28;20267;-88
2023/07/12 13:34:22;;;;;;;2.13;1.30;;;;;;;;;;4984475;28;20585;-84
2023/07/12 13:36:49;;;;;;;2.15;1.95;;;;;;;;;;4989540;28;20200;-87
2023/07/12 13:39:19;;;;;;;1.27;1.10;;;;;;;;;;4988661;28;20239;-88
2023/07/12 13:41:48;;;;;;;2.55;1.42;;;;;;;;;;4987375;28;20272;-86
2023/07/12 13:44:16;;;;;;;1.38;1.10;;;;;;;;;;4972225;28;21068;-86
2023/07/12 13:46:43;;;;;;;1.70;1.05;;;;;;;;;;4987313;28;20232;-87
2023/07/12 13:49:12;;;;;;;3.75;1.30;;;;;;;;;;4977631;28;20247;-85
2023/07/12 13:51:39;;;;;;;0.90;0.90;;;;;;;;;;4980846;28;20217;-88
2023/07/12 13:54:06;;;;;;;1.17;1.00;;;;;;;;;;4985129;28;20232;-85
2023/07/12 13:56:34;;;;;;;1.25;1.15;;;;;;;;;;4987781;28;20211;-88
2023/07/12 13:59:02;;;;;;;2.30;1.10;;;;;;;;;;4982973;28;20240;-80
2023/07/12 14:01:31;;;;;;;1.15;1.00;;;;;;;;;;4984767;28;20358;-82
2023/07/12 14:03:59;;;;;;;2.22;0.85;;;;;;;;;;4983488;28;20236;-80
2023/07/12 14:06:27;;;;;;;4.07;1.05;;;;;;;;;;4973168;28;20215;-81
2023/07/12 14:08:54;;;;;;;1.25;1.13;;;;;;;;;;4975643;28;20228;-80
2023/07/12 14:11:24;;;;;;;1.20;1.02;;;;;;;;;;4982182;28;20213;-80
2023/07/12 14:13:51;;;;;;;1.40;1.20;;;;;;;;;;4973650;28;20232;-80
2023/07/12 14:16:20;;;;;;;2.00;1.20;;;;;;;;;;4976645;28;20208;-80
2023/07/12 14:18:47;;;;;;;3.45;1.08;;;;;;;;;;4977620;28;20236;-80
2023/07/12 14:21:14;;;;;;;2.38;0.88;;;;;;;;;;4985284;28;20219;-81
2023/07/12 14:23:43;;;;;;;1.48;0.80;;;;;;;;;;4979909;28;20272;-81
2023/07/12 14:26:17;;;;;;;1.05;0.85;;;;;;;;;;4981855;28;20209;-81
2023/07/12 14:28:44;;;;;;;3.95;1.17;;;;;;;;;;4991485;28;20266;-79
2023/07/12 14:31:13;;;;;;;2.25;1.02;;;;;;;;;;5013333;28;20265;-81
2023/07/12 14:33:41;;;;;;;1.60;1.10;;;;;;;;;;5021911;28;20277;-81
2023/07/12 14:36:10;;;;;;;1.00;1.00;;;;;;;;;;5021330;28;20212;-80
2023/07/12 14:38:37;;;;;;;1.95;0.93;;;;;;;;;;5015313;28;20231;-80
2023/07/12 14:41:07;;;;;;;2.63;1.30;;;;;;;;;;5018408;28;20208;-80
2023/07/12 14:43:34;;;;;;;1.58;0.90;;;;;;;;;;5030903;28;20221;-80
2023/07/12 14:46:01;;;;;;;1.70;1.13;;;;;;;;;;5012276;28;20203;-81
2023/07/12 14:48:28;;;;;;;1.55;1.10;;;;;;;;;;5003486;28;20780;-84
2023/07/12 14:50:56;;;;;;;5.85;1.33;;;;;;;;;;5008808;28;20223;-84